sensor_id;sensor_type;location;lat;lon;timestamp;P1;durP1;ratioP1;P2;durP2;ratioP2
11962;SDS011;62678;52.130;5.584;2024-02-15T00:00:16;34.42;;;19.17;;
11962;SDS011;62678;52.130;5.584;2024-02-15T00:02:43;31.85;;;18.85;;
11962;SDS011;62678;52.130;5.584;2024-02-15T00:05:10;32.00;;;19.75;;
11962;SDS011;62678;52.130;5.584;2024-02-15T00:07:41;33.47;;;19.65;;
11962;SDS011;62678;52.130;5.584;2024-02-15T00:10:09;34.25;;;19.92;;
11962;SDS011;62678;52.130;5.584;2024-02-15T00:12:36;30.00;;;19.42;;
11962;SDS011;62678;52.130;5.584;2024-02-15T00:15:04;33.92;;;20.10;;
11962;SDS011;62678;52.130;5.584;2024-02-15T00:17:31;32.20;;;20.05;;
11962;SDS011;62678;52.130;5.584;2024-02-15T00:20:00;31.02;;;20.23;;
11962;SDS011;62678;52.130;5.584;2024-02-15T00:22:30;26.35;;;18.45;;
11962;SDS011;62678;52.130;5.584;2024-02-15T00:25:00;31.23;;;18.70;;
11962;SDS011;62678;52.130;5.584;2024-02-15T00:27:27;33.35;;;18.05;;
11962;SDS011;62678;52.130;5.584;2024-02-15T00:29:55;26.25;;;17.77;;
11962;SDS011;62678;52.130;5.584;2024-02-15T00:32:22;30.48;;;18.45;;
11962;SDS011;62678;52.130;5.584;2024-02-15T00:34:50;32.67;;;17.65;;
11962;SDS011;62678;52.130;5.584;2024-02-15T00:37:17;31.27;;;17.38;;
11962;SDS011;62678;52.130;5.584;2024-02-15T00:39:44;30.27;;;17.13;;
11962;SDS011;62678;52.130;5.584;2024-02-15T00:42:13;30.45;;;17.27;;
11962;SDS011;62678;52.130;5.584;2024-02-15T00:44:40;32.10;;;17.15;;
11962;SDS011;62678;52.130;5.584;2024-02-15T00:47:09;28.42;;;17.75;;
11962;SDS011;62678;52.130;5.584;2024-02-15T00:49:37;28.27;;;17.52;;
11962;SDS011;62678;52.130;5.584;2024-02-15T00:52:04;28.50;;;17.52;;
11962;SDS011;62678;52.130;5.584;2024-02-15T00:54:32;31.10;;;18.00;;
11962;SDS011;62678;52.130;5.584;2024-02-15T00:56:59;30.58;;;17.08;;
11962;SDS011;62678;52.130;5.584;2024-02-15T00:59:28;28.17;;;16.30;;
11962;SDS011;62678;52.130;5.584;2024-02-15T01:01:55;29.58;;;17.15;;
11962;SDS011;62678;52.130;5.584;2024-02-15T01:04:22;26.83;;;17.15;;
11962;SDS011;62678;52.130;5.584;2024-02-15T01:06:50;34.90;;;17.92;;
11962;SDS011;62678;52.130;5.584;2024-02-15T01:09:18;29.17;;;18.45;;
11962;SDS011;62678;52.130;5.584;2024-02-15T01:11:46;28.88;;;19.27;;
11962;SDS011;62678;52.130;5.584;2024-02-15T01:14:13;32.65;;;19.10;;
11962;SDS011;62678;52.130;5.584;2024-02-15T01:16:42;28.60;;;18.83;;
11962;SDS011;62678;52.130;5.584;2024-02-15T01:19:10;33.72;;;21.30;;
11962;SDS011;62678;52.130;5.584;2024-02-15T01:21:37;35.75;;;21.88;;
11962;SDS011;62678;52.130;5.584;2024-02-15T01:24:05;34.17;;;22.75;;
11962;SDS011;62678;52.130;5.584;2024-02-15T01:26:32;38.65;;;23.85;;
11962;SDS011;62678;52.130;5.584;2024-02-15T01:29:00;42.65;;;25.33;;
11962;SDS011;62678;52.130;5.584;2024-02-15T01:31:28;47.17;;;27.17;;
11962;SDS011;62678;52.130;5.584;2024-02-15T01:33:56;46.85;;;29.45;;
11962;SDS011;62678;52.130;5.584;2024-02-15T01:36:24;49.13;;;32.00;;
11962;SDS011;62678;52.130;5.584;2024-02-15T01:38:52;54.70;;;33.25;;
11962;SDS011;62678;52.130;5.584;2024-02-15T01:41:19;59.20;;;34.20;;
11962;SDS011;62678;52.130;5.584;2024-02-15T01:43:46;64.10;;;35.90;;
11962;SDS011;62678;52.130;5.584;2024-02-15T01:46:15;60.25;;;37.03;;
11962;SDS011;62678;52.130;5.584;2024-02-15T01:48:42;63.90;;;36.15;;
11962;SDS011;62678;52.130;5.584;2024-02-15T01:51:11;63.03;;;37.85;;
11962;SDS011;62678;52.130;5.584;2024-02-15T01:53:40;59.05;;;37.03;;
11962;SDS011;62678;52.130;5.584;2024-02-15T01:56:08;63.85;;;37.17;;
11962;SDS011;62678;52.130;5.584;2024-02-15T01:58:35;62.53;;;35.88;;
11962;SDS011;62678;52.130;5.584;2024-02-15T02:01:06;54.60;;;35.85;;
11962;SDS011;62678;52.130;5.584;2024-02-15T02:03:34;53.70;;;35.20;;
11962;SDS011;62678;52.130;5.584;2024-02-15T02:06:02;52.33;;;34.72;;
11962;SDS011;62678;52.130;5.584;2024-02-15T02:08:31;55.55;;;34.22;;
11962;SDS011;62678;52.130;5.584;2024-02-15T02:10:58;47.38;;;31.83;;
11962;SDS011;62678;52.130;5.584;2024-02-15T02:13:26;54.58;;;33.72;;
11962;SDS011;62678;52.130;5.584;2024-02-15T02:15:54;51.92;;;33.65;;
11962;SDS011;62678;52.130;5.584;2024-02-15T02:18:22;53.80;;;33.95;;
11962;SDS011;62678;52.130;5.584;2024-02-15T02:20:50;52.58;;;33.42;;
11962;SDS011;62678;52.130;5.584;2024-02-15T02:23:20;50.00;;;32.25;;
11962;SDS011;62678;52.130;5.584;2024-02-15T02:25:49;53.70;;;33.97;;
11962;SDS011;62678;52.130;5.584;2024-02-15T02:28:16;55.70;;;34.03;;
11962;SDS011;62678;52.130;5.584;2024-02-15T02:30:43;52.35;;;31.77;;
11962;SDS011;62678;52.130;5.584;2024-02-15T02:33:11;52.58;;;32.33;;
11962;SDS011;62678;52.130;5.584;2024-02-15T02:35:44;48.88;;;32.35;;
11962;SDS011;62678;52.130;5.584;2024-02-15T02:38:12;59.67;;;31.95;;
11962;SDS011;62678;52.130;5.584;2024-02-15T02:40:40;50.72;;;30.70;;
11962;SDS011;62678;52.130;5.584;2024-02-15T02:43:08;54.35;;;31.10;;
11962;SDS011;62678;52.130;5.584;2024-02-15T02:45:35;46.90;;;30.48;;
11962;SDS011;62678;52.130;5.584;2024-02-15T02:48:03;48.72;;;28.52;;
11962;SDS011;62678;52.130;5.584;2024-02-15T02:50:30;45.25;;;29.02;;
11962;SDS011;62678;52.130;5.584;2024-02-15T02:52:57;45.90;;;27.45;;
11962;SDS011;62678;52.130;5.584;2024-02-15T02:55:24;51.38;;;27.85;;
11962;SDS011;62678;52.130;5.584;2024-02-15T02:57:52;50.47;;;29.20;;
11962;SDS011;62678;52.130;5.584;2024-02-15T03:00:22;43.75;;;27.40;;
11962;SDS011;62678;52.130;5.584;2024-02-15T03:02:49;44.00;;;27.63;;
11962;SDS011;62678;52.130;5.584;2024-02-15T03:05:17;42.85;;;25.80;;
11962;SDS011;62678;52.130;5.584;2024-02-15T03:07:45;43.72;;;26.40;;
11962;SDS011;62678;52.130;5.584;2024-02-15T03:10:13;45.78;;;25.33;;
11962;SDS011;62678;52.130;5.584;2024-02-15T03:12:41;47.47;;;26.63;;
11962;SDS011;62678;52.130;5.584;2024-02-15T03:15:11;48.47;;;24.17;;
11962;SDS011;62678;52.130;5.584;2024-02-15T03:17:41;38.28;;;24.90;;
11962;SDS011;62678;52.130;5.584;2024-02-15T03:20:09;44.50;;;24.55;;
11962;SDS011;62678;52.130;5.584;2024-02-15T03:22:45;40.33;;;25.48;;
11962;SDS011;62678;52.130;5.584;2024-02-15T03:25:12;42.50;;;25.20;;
11962;SDS011;62678;52.130;5.584;2024-02-15T03:27:39;47.78;;;24.55;;
11962;SDS011;62678;52.130;5.584;2024-02-15T03:30:07;38.60;;;23.98;;
11962;SDS011;62678;52.130;5.584;2024-02-15T03:32:35;43.25;;;23.38;;
11962;SDS011;62678;52.130;5.584;2024-02-15T03:35:04;37.85;;;23.42;;
11962;SDS011;62678;52.130;5.584;2024-02-15T03:37:32;45.28;;;23.25;;
11962;SDS011;62678;52.130;5.584;2024-02-15T03:40:02;43.55;;;22.65;;
11962;SDS011;62678;52.130;5.584;2024-02-15T03:42:30;38.45;;;21.38;;
11962;SDS011;62678;52.130;5.584;2024-02-15T03:44:57;36.35;;;21.35;;
11962;SDS011;62678;52.130;5.584;2024-02-15T03:47:25;43.08;;;22.20;;
11962;SDS011;62678;52.130;5.584;2024-02-15T03:49:54;37.50;;;21.27;;
11962;SDS011;62678;52.130;5.584;2024-02-15T03:52:23;37.72;;;20.88;;
11962;SDS011;62678;52.130;5.584;2024-02-15T03:54:50;36.97;;;22.27;;
11962;SDS011;62678;52.130;5.584;2024-02-15T03:57:19;35.80;;;21.10;;
11962;SDS011;62678;52.130;5.584;2024-02-15T03:59:46;35.90;;;21.30;;
11962;SDS011;62678;52.130;5.584;2024-02-15T04:02:15;40.75;;;21.60;;
11962;SDS011;62678;52.130;5.584;2024-02-15T04:04:43;34.83;;;20.83;;
11962;SDS011;62678;52.130;5.584;2024-02-15T04:07:12;38.97;;;19.60;;
11962;SDS011;62678;52.130;5.584;2024-02-15T04:09:42;39.53;;;20.15;;
11962;SDS011;62678;52.130;5.584;2024-02-15T04:12:10;35.65;;;19.17;;
11962;SDS011;62678;52.130;5.584;2024-02-15T04:14:39;37.10;;;18.83;;
11962;SDS011;62678;52.130;5.584;2024-02-15T04:17:10;35.38;;;18.02;;
11962;SDS011;62678;52.130;5.584;2024-02-15T04:19:43;29.73;;;17.35;;
11962;SDS011;62678;52.130;5.584;2024-02-15T04:22:11;31.48;;;18.80;;
11962;SDS011;62678;52.130;5.584;2024-02-15T04:24:42;35.60;;;18.15;;
11962;SDS011;62678;52.130;5.584;2024-02-15T04:27:10;38.10;;;18.05;;
11962;SDS011;62678;52.130;5.584;2024-02-15T04:29:38;31.13;;;18.25;;
11962;SDS011;62678;52.130;5.584;2024-02-15T04:32:06;33.08;;;18.13;;
11962;SDS011;62678;52.130;5.584;2024-02-15T04:34:35;34.17;;;18.27;;
11962;SDS011;62678;52.130;5.584;2024-02-15T04:37:02;34.60;;;18.25;;
11962;SDS011;62678;52.130;5.584;2024-02-15T04:39:32;35.35;;;17.83;;
11962;SDS011;62678;52.130;5.584;2024-02-15T04:42:02;34.10;;;17.63;;
11962;SDS011;62678;52.130;5.584;2024-02-15T04:44:31;33.90;;;17.48;;
11962;SDS011;62678;52.130;5.584;2024-02-15T04:47:00;30.50;;;18.42;;
11962;SDS011;62678;52.130;5.584;2024-02-15T04:49:29;36.75;;;18.08;;
11962;SDS011;62678;52.130;5.584;2024-02-15T04:51:56;32.63;;;17.00;;
11962;SDS011;62678;52.130;5.584;2024-02-15T04:54:24;37.67;;;18.02;;
11962;SDS011;62678;52.130;5.584;2024-02-15T04:56:51;32.30;;;16.90;;
11962;SDS011;62678;52.130;5.584;2024-02-15T04:59:21;30.70;;;17.05;;
11962;SDS011;62678;52.130;5.584;2024-02-15T05:01:51;32.92;;;16.13;;
11962;SDS011;62678;52.130;5.584;2024-02-15T05:04:18;31.27;;;16.33;;
11962;SDS011;62678;52.130;5.584;2024-02-15T05:06:46;29.15;;;16.90;;
11962;SDS011;62678;52.130;5.584;2024-02-15T05:09:14;32.28;;;15.68;;
11962;SDS011;62678;52.130;5.584;2024-02-15T05:11:43;27.83;;;15.55;;
11962;SDS011;62678;52.130;5.584;2024-02-15T05:14:12;33.67;;;15.70;;
11962;SDS011;62678;52.130;5.584;2024-02-15T05:16:45;26.00;;;15.30;;
11962;SDS011;62678;52.130;5.584;2024-02-15T05:19:13;30.23;;;15.63;;
11962;SDS011;62678;52.130;5.584;2024-02-15T05:21:40;27.20;;;15.10;;
11962;SDS011;62678;52.130;5.584;2024-02-15T05:24:10;26.85;;;15.20;;
11962;SDS011;62678;52.130;5.584;2024-02-15T05:26:38;34.72;;;15.82;;
11962;SDS011;62678;52.130;5.584;2024-02-15T05:29:07;27.75;;;15.45;;
11962;SDS011;62678;52.130;5.584;2024-02-15T05:31:35;29.52;;;15.38;;
11962;SDS011;62678;52.130;5.584;2024-02-15T05:34:05;25.95;;;16.13;;
11962;SDS011;62678;52.130;5.584;2024-02-15T05:36:32;25.35;;;14.77;;
11962;SDS011;62678;52.130;5.584;2024-02-15T05:38:59;29.08;;;16.15;;
11962;SDS011;62678;52.130;5.584;2024-02-15T05:41:27;31.48;;;15.25;;
11962;SDS011;62678;52.130;5.584;2024-02-15T05:43:55;28.40;;;16.15;;
11962;SDS011;62678;52.130;5.584;2024-02-15T05:46:23;28.58;;;16.52;;
11962;SDS011;62678;52.130;5.584;2024-02-15T05:48:50;30.30;;;15.75;;
11962;SDS011;62678;52.130;5.584;2024-02-15T05:51:19;28.55;;;16.13;;
11962;SDS011;62678;52.130;5.584;2024-02-15T05:53:46;26.33;;;16.15;;
11962;SDS011;62678;52.130;5.584;2024-02-15T05:56:14;30.10;;;16.00;;
11962;SDS011;62678;52.130;5.584;2024-02-15T05:58:41;29.92;;;16.50;;
11962;SDS011;62678;52.130;5.584;2024-02-15T06:01:09;31.40;;;17.10;;
11962;SDS011;62678;52.130;5.584;2024-02-15T06:03:38;27.40;;;16.35;;
11962;SDS011;62678;52.130;5.584;2024-02-15T06:06:06;27.92;;;16.23;;
11962;SDS011;62678;52.130;5.584;2024-02-15T06:08:35;32.50;;;16.63;;
11962;SDS011;62678;52.130;5.584;2024-02-15T06:11:03;31.67;;;15.93;;
11962;SDS011;62678;52.130;5.584;2024-02-15T06:13:31;24.48;;;15.65;;
11962;SDS011;62678;52.130;5.584;2024-02-15T06:15:59;31.17;;;16.27;;
11962;SDS011;62678;52.130;5.584;2024-02-15T06:18:27;24.63;;;15.40;;
11962;SDS011;62678;52.130;5.584;2024-02-15T06:20:56;24.92;;;15.23;;
11962;SDS011;62678;52.130;5.584;2024-02-15T06:23:24;27.80;;;15.40;;
11962;SDS011;62678;52.130;5.584;2024-02-15T06:25:54;31.73;;;15.77;;
11962;SDS011;62678;52.130;5.584;2024-02-15T06:28:23;26.98;;;15.20;;
11962;SDS011;62678;52.130;5.584;2024-02-15T06:31:04;25.42;;;16.23;;
11962;SDS011;62678;52.130;5.584;2024-02-15T06:33:49;31.48;;;15.90;;
11962;SDS011;62678;52.130;5.584;2024-02-15T06:36:34;27.05;;;14.93;;
11962;SDS011;62678;52.130;5.584;2024-02-15T06:39:18;24.80;;;15.90;;
11962;SDS011;62678;52.130;5.584;2024-02-15T06:42:04;25.42;;;16.15;;
11962;SDS011;62678;52.130;5.584;2024-02-15T06:44:31;27.40;;;16.40;;
11962;SDS011;62678;52.130;5.584;2024-02-15T06:46:59;23.58;;;16.48;;
11962;SDS011;62678;52.130;5.584;2024-02-15T06:49:26;24.65;;;15.43;;
11962;SDS011;62678;52.130;5.584;2024-02-15T06:51:53;23.10;;;16.55;;
11962;SDS011;62678;52.130;5.584;2024-02-15T06:54:21;26.95;;;16.83;;
11962;SDS011;62678;52.130;5.584;2024-02-15T06:56:49;25.30;;;17.58;;
11962;SDS011;62678;52.130;5.584;2024-02-15T06:59:18;27.73;;;16.90;;
11962;SDS011;62678;52.130;5.584;2024-02-15T07:01:47;27.85;;;17.23;;
11962;SDS011;62678;52.130;5.584;2024-02-15T07:04:14;29.45;;;17.15;;
11962;SDS011;62678;52.130;5.584;2024-02-15T07:06:41;26.00;;;17.77;;
11962;SDS011;62678;52.130;5.584;2024-02-15T07:09:11;29.05;;;18.58;;
11962;SDS011;62678;52.130;5.584;2024-02-15T07:11:39;29.70;;;17.65;;
11962;SDS011;62678;52.130;5.584;2024-02-15T07:14:06;27.92;;;17.40;;
11962;SDS011;62678;52.130;5.584;2024-02-15T07:16:35;27.05;;;17.38;;
11962;SDS011;62678;52.130;5.584;2024-02-15T07:19:03;26.20;;;18.27;;
11962;SDS011;62678;52.130;5.584;2024-02-15T07:21:30;24.65;;;17.90;;
11962;SDS011;62678;52.130;5.584;2024-02-15T07:23:58;26.15;;;17.63;;
11962;SDS011;62678;52.130;5.584;2024-02-15T07:26:25;27.08;;;18.88;;
11962;SDS011;62678;52.130;5.584;2024-02-15T07:28:53;25.27;;;18.73;;
11962;SDS011;62678;52.130;5.584;2024-02-15T07:31:21;24.13;;;18.98;;
11962;SDS011;62678;52.130;5.584;2024-02-15T07:36:20;28.05;;;17.08;;
11962;SDS011;62678;52.130;5.584;2024-02-15T07:38:48;25.70;;;17.23;;
11962;SDS011;62678;52.130;5.584;2024-02-15T07:41:16;26.23;;;17.05;;
11962;SDS011;62678;52.130;5.584;2024-02-15T07:43:45;22.27;;;17.50;;
11962;SDS011;62678;52.130;5.584;2024-02-15T07:46:12;24.77;;;17.65;;
11962;SDS011;62678;52.130;5.584;2024-02-15T07:48:41;22.30;;;16.33;;
11962;SDS011;62678;52.130;5.584;2024-02-15T07:51:11;21.45;;;17.52;;
11962;SDS011;62678;52.130;5.584;2024-02-15T07:53:40;22.40;;;16.70;;
11962;SDS011;62678;52.130;5.584;2024-02-15T07:56:08;23.15;;;16.70;;
11962;SDS011;62678;52.130;5.584;2024-02-15T07:58:38;24.88;;;16.08;;
11962;SDS011;62678;52.130;5.584;2024-02-15T08:01:07;24.52;;;15.82;;
11962;SDS011;62678;52.130;5.584;2024-02-15T08:03:35;20.83;;;16.42;;
11962;SDS011;62678;52.130;5.584;2024-02-15T08:06:02;20.23;;;16.00;;
11962;SDS011;62678;52.130;5.584;2024-02-15T08:08:32;21.38;;;16.15;;
11962;SDS011;62678;52.130;5.584;2024-02-15T08:11:03;25.63;;;16.83;;
11962;SDS011;62678;52.130;5.584;2024-02-15T08:13:30;21.70;;;15.68;;
11962;SDS011;62678;52.130;5.584;2024-02-15T08:15:58;22.67;;;16.05;;
11962;SDS011;62678;52.130;5.584;2024-02-15T08:18:25;22.48;;;15.13;;
11962;SDS011;62678;52.130;5.584;2024-02-15T08:20:53;16.77;;;14.90;;
11962;SDS011;62678;52.130;5.584;2024-02-15T08:23:21;20.80;;;15.40;;
11962;SDS011;62678;52.130;5.584;2024-02-15T08:25:49;18.52;;;14.93;;
11962;SDS011;62678;52.130;5.584;2024-02-15T08:28:19;20.30;;;14.52;;
11962;SDS011;62678;52.130;5.584;2024-02-15T08:30:47;21.88;;;14.98;;
11962;SDS011;62678;52.130;5.584;2024-02-15T08:33:14;19.48;;;12.60;;
11962;SDS011;62678;52.130;5.584;2024-02-15T08:35:41;15.20;;;12.85;;
11962;SDS011;62678;52.130;5.584;2024-02-15T08:38:09;15.35;;;12.98;;
11962;SDS011;62678;52.130;5.584;2024-02-15T08:40:36;16.58;;;13.25;;
11962;SDS011;62678;52.130;5.584;2024-02-15T08:43:04;15.38;;;12.77;;
11962;SDS011;62678;52.130;5.584;2024-02-15T08:45:33;15.20;;;12.45;;
11962;SDS011;62678;52.130;5.584;2024-02-15T08:48:01;15.35;;;12.00;;
11962;SDS011;62678;52.130;5.584;2024-02-15T08:50:30;13.82;;;11.60;;
11962;SDS011;62678;52.130;5.584;2024-02-15T08:52:57;16.30;;;11.82;;
11962;SDS011;62678;52.130;5.584;2024-02-15T08:55:25;12.80;;;10.07;;
11962;SDS011;62678;52.130;5.584;2024-02-15T08:57:53;17.23;;;10.32;;
11962;SDS011;62678;52.130;5.584;2024-02-15T09:00:20;14.65;;;9.35;;
11962;SDS011;62678;52.130;5.584;2024-02-15T09:02:50;10.57;;;8.30;;
11962;SDS011;62678;52.130;5.584;2024-02-15T09:05:18;8.98;;;8.07;;
11962;SDS011;62678;52.130;5.584;2024-02-15T09:07:47;8.30;;;7.18;;
11962;SDS011;62678;52.130;5.584;2024-02-15T09:10:16;10.25;;;7.82;;
11962;SDS011;62678;52.130;5.584;2024-02-15T09:12:43;10.80;;;6.70;;
11962;SDS011;62678;52.130;5.584;2024-02-15T09:15:12;7.15;;;6.07;;
11962;SDS011;62678;52.130;5.584;2024-02-15T09:17:40;7.18;;;5.93;;
11962;SDS011;62678;52.130;5.584;2024-02-15T09:20:10;9.30;;;6.50;;
11962;SDS011;62678;52.130;5.584;2024-02-15T09:22:40;6.30;;;5.70;;
11962;SDS011;62678;52.130;5.584;2024-02-15T09:25:08;8.20;;;6.40;;
11962;SDS011;62678;52.130;5.584;2024-02-15T09:27:35;10.77;;;6.82;;
11962;SDS011;62678;52.130;5.584;2024-02-15T09:30:03;12.13;;;7.40;;
11962;SDS011;62678;52.130;5.584;2024-02-15T09:32:32;10.65;;;6.35;;
11962;SDS011;62678;52.130;5.584;2024-02-15T09:35:01;11.63;;;6.13;;
11962;SDS011;62678;52.130;5.584;2024-02-15T09:37:29;8.30;;;6.10;;
11962;SDS011;62678;52.130;5.584;2024-02-15T09:39:58;10.75;;;7.85;;
11962;SDS011;62678;52.130;5.584;2024-02-15T09:42:30;8.48;;;6.00;;
11962;SDS011;62678;52.130;5.584;2024-02-15T09:44:59;8.48;;;5.95;;
11962;SDS011;62678;52.130;5.584;2024-02-15T09:47:29;8.82;;;6.28;;
11962;SDS011;62678;52.130;5.584;2024-02-15T09:49:57;8.90;;;6.10;;
11962;SDS011;62678;52.130;5.584;2024-02-15T09:52:26;9.52;;;6.05;;
11962;SDS011;62678;52.130;5.584;2024-02-15T09:54:58;9.88;;;6.57;;
11962;SDS011;62678;52.130;5.584;2024-02-15T09:57:26;10.32;;;6.43;;
11962;SDS011;62678;52.130;5.584;2024-02-15T09:59:54;12.55;;;6.32;;
11962;SDS011;62678;52.130;5.584;2024-02-15T10:02:21;12.18;;;6.45;;
11962;SDS011;62678;52.130;5.584;2024-02-15T10:04:49;9.05;;;6.43;;
11962;SDS011;62678;52.130;5.584;2024-02-15T10:07:16;10.95;;;6.60;;
11962;SDS011;62678;52.130;5.584;2024-02-15T10:09:43;10.07;;;6.70;;
11962;SDS011;62678;52.130;5.584;2024-02-15T10:12:12;14.13;;;7.15;;
11962;SDS011;62678;52.130;5.584;2024-02-15T10:14:43;10.50;;;6.60;;
11962;SDS011;62678;52.130;5.584;2024-02-15T10:17:15;10.85;;;7.03;;
11962;SDS011;62678;52.130;5.584;2024-02-15T10:19:42;12.20;;;6.90;;
11962;SDS011;62678;52.130;5.584;2024-02-15T10:22:12;14.55;;;7.07;;
11962;SDS011;62678;52.130;5.584;2024-02-15T10:24:40;13.80;;;6.07;;
11962;SDS011;62678;52.130;5.584;2024-02-15T10:27:07;14.88;;;6.40;;
11962;SDS011;62678;52.130;5.584;2024-02-15T10:29:37;15.80;;;6.88;;
11962;SDS011;62678;52.130;5.584;2024-02-15T10:32:05;14.52;;;6.78;;
11962;SDS011;62678;52.130;5.584;2024-02-15T10:34:35;12.57;;;6.15;;
11962;SDS011;62678;52.130;5.584;2024-02-15T10:37:10;12.38;;;6.35;;
11962;SDS011;62678;52.130;5.584;2024-02-15T10:39:38;11.98;;;5.88;;
11962;SDS011;62678;52.130;5.584;2024-02-15T10:42:06;11.88;;;6.13;;
11962;SDS011;62678;52.130;5.584;2024-02-15T10:44:37;10.90;;;5.90;;
11962;SDS011;62678;52.130;5.584;2024-02-15T10:47:05;12.63;;;5.82;;
11962;SDS011;62678;52.130;5.584;2024-02-15T10:49:33;12.32;;;5.90;;
11962;SDS011;62678;52.130;5.584;2024-02-15T10:52:01;12.18;;;5.82;;
11962;SDS011;62678;52.130;5.584;2024-02-15T10:54:40;9.93;;;5.43;;
11962;SDS011;62678;52.130;5.584;2024-02-15T10:57:09;9.43;;;5.70;;
11962;SDS011;62678;52.130;5.584;2024-02-15T10:59:38;9.45;;;5.65;;
11962;SDS011;62678;52.130;5.584;2024-02-15T11:02:18;9.30;;;5.40;;
11962;SDS011;62678;52.130;5.584;2024-02-15T11:04:48;9.40;;;5.75;;
11962;SDS011;62678;52.130;5.584;2024-02-15T11:07:21;12.10;;;5.68;;
11962;SDS011;62678;52.130;5.584;2024-02-15T11:09:49;9.65;;;5.70;;
11962;SDS011;62678;52.130;5.584;2024-02-15T11:12:17;13.98;;;6.03;;
11962;SDS011;62678;52.130;5.584;2024-02-15T11:14:46;11.98;;;6.13;;
11962;SDS011;62678;52.130;5.584;2024-02-15T11:17:44;14.02;;;6.40;;
11962;SDS011;62678;52.130;5.584;2024-02-15T11:20:10;9.85;;;5.53;;
11962;SDS011;62678;52.130;5.584;2024-02-15T11:22:38;10.80;;;5.60;;
11962;SDS011;62678;52.130;5.584;2024-02-15T11:25:07;14.18;;;6.72;;
11962;SDS011;62678;52.130;5.584;2024-02-15T11:27:36;13.68;;;6.00;;
11962;SDS011;62678;52.130;5.584;2024-02-15T11:30:04;16.90;;;6.13;;
11962;SDS011;62678;52.130;5.584;2024-02-15T11:32:37;11.98;;;6.25;;
11962;SDS011;62678;52.130;5.584;2024-02-15T11:35:06;12.85;;;5.63;;
11962;SDS011;62678;52.130;5.584;2024-02-15T11:46:06;12.35;;;6.07;;
11962;SDS011;62678;52.130;5.584;2024-02-15T11:48:35;12.75;;;5.80;;
11962;SDS011;62678;52.130;5.584;2024-02-15T11:51:04;10.25;;;5.93;;
11962;SDS011;62678;52.130;5.584;2024-02-15T11:53:32;12.15;;;5.85;;
11962;SDS011;62678;52.130;5.584;2024-02-15T11:55:59;12.77;;;6.25;;
11962;SDS011;62678;52.130;5.584;2024-02-15T11:58:27;13.60;;;6.18;;
11962;SDS011;62678;52.130;5.584;2024-02-15T12:01:08;12.18;;;6.47;;
11962;SDS011;62678;52.130;5.584;2024-02-15T12:03:53;11.52;;;6.35;;
11962;SDS011;62678;52.130;5.584;2024-02-15T12:06:38;10.55;;;6.00;;
11962;SDS011;62678;52.130;5.584;2024-02-15T12:09:24;11.60;;;6.68;;
11962;SDS011;62678;52.130;5.584;2024-02-15T12:12:09;10.50;;;6.47;;
11962;SDS011;62678;52.130;5.584;2024-02-15T12:14:58;12.77;;;6.35;;
11962;SDS011;62678;52.130;5.584;2024-02-15T12:17:44;11.05;;;6.68;;
11962;SDS011;62678;52.130;5.584;2024-02-15T12:20:28;11.45;;;7.03;;
11962;SDS011;62678;52.130;5.584;2024-02-15T12:22:57;14.68;;;7.18;;
11962;SDS011;62678;52.130;5.584;2024-02-15T12:25:25;13.80;;;7.13;;
11962;SDS011;62678;52.130;5.584;2024-02-15T12:27:52;12.30;;;6.80;;
11962;SDS011;62678;52.130;5.584;2024-02-15T12:30:19;10.65;;;6.70;;
11962;SDS011;62678;52.130;5.584;2024-02-15T12:32:49;14.90;;;6.13;;
11962;SDS011;62678;52.130;5.584;2024-02-15T12:35:16;10.00;;;6.38;;
11962;SDS011;62678;52.130;5.584;2024-02-15T12:37:44;10.80;;;6.20;;
11962;SDS011;62678;52.130;5.584;2024-02-15T12:40:12;7.53;;;5.78;;
11962;SDS011;62678;52.130;5.584;2024-02-15T12:42:41;10.45;;;5.80;;
11962;SDS011;62678;52.130;5.584;2024-02-15T12:45:14;8.88;;;5.85;;
11962;SDS011;62678;52.130;5.584;2024-02-15T12:47:45;13.07;;;5.65;;
11962;SDS011;62678;52.130;5.584;2024-02-15T12:50:14;7.68;;;5.53;;
11962;SDS011;62678;52.130;5.584;2024-02-15T12:52:42;9.75;;;5.63;;
11962;SDS011;62678;52.130;5.584;2024-02-15T12:55:10;11.15;;;6.10;;
11962;SDS011;62678;52.130;5.584;2024-02-15T12:57:38;11.52;;;5.97;;
11962;SDS011;62678;52.130;5.584;2024-02-15T13:00:12;9.93;;;5.07;;
11962;SDS011;62678;52.130;5.584;2024-02-15T13:02:43;7.72;;;4.43;;
11962;SDS011;62678;52.130;5.584;2024-02-15T13:05:10;11.85;;;4.75;;
11962;SDS011;62678;52.130;5.584;2024-02-15T13:07:40;12.50;;;4.30;;
11962;SDS011;62678;52.130;5.584;2024-02-15T13:10:07;8.93;;;4.35;;
11962;SDS011;62678;52.130;5.584;2024-02-15T13:12:36;8.32;;;4.45;;
11962;SDS011;62678;52.130;5.584;2024-02-15T13:15:03;9.90;;;4.93;;
11962;SDS011;62678;52.130;5.584;2024-02-15T13:17:32;10.32;;;5.25;;
11962;SDS011;62678;52.130;5.584;2024-02-15T13:19:59;7.95;;;4.43;;
11962;SDS011;62678;52.130;5.584;2024-02-15T13:22:35;8.80;;;4.30;;
11962;SDS011;62678;52.130;5.584;2024-02-15T13:25:05;8.88;;;4.13;;
11962;SDS011;62678;52.130;5.584;2024-02-15T13:27:34;7.60;;;4.05;;
11962;SDS011;62678;52.130;5.584;2024-02-15T13:30:02;9.00;;;3.83;;
11962;SDS011;62678;52.130;5.584;2024-02-15T13:32:33;8.50;;;4.30;;
11962;SDS011;62678;52.130;5.584;2024-02-15T13:35:00;7.57;;;4.03;;
11962;SDS011;62678;52.130;5.584;2024-02-15T13:37:32;8.18;;;3.80;;
11962;SDS011;62678;52.130;5.584;2024-02-15T13:40:00;10.18;;;4.00;;
11962;SDS011;62678;52.130;5.584;2024-02-15T13:42:29;7.50;;;4.10;;
11962;SDS011;62678;52.130;5.584;2024-02-15T13:44:58;6.70;;;4.25;;
11962;SDS011;62678;52.130;5.584;2024-02-15T13:47:25;9.32;;;4.10;;
11962;SDS011;62678;52.130;5.584;2024-02-15T13:49:52;6.75;;;4.00;;
11962;SDS011;62678;52.130;5.584;2024-02-15T13:52:19;8.68;;;3.92;;
11962;SDS011;62678;52.130;5.584;2024-02-15T13:54:47;7.07;;;3.90;;
11962;SDS011;62678;52.130;5.584;2024-02-15T13:57:14;8.20;;;3.70;;
11962;SDS011;62678;52.130;5.584;2024-02-15T13:59:43;5.78;;;3.50;;
11962;SDS011;62678;52.130;5.584;2024-02-15T14:02:10;9.40;;;3.47;;
11962;SDS011;62678;52.130;5.584;2024-02-15T14:04:38;7.43;;;3.28;;
11962;SDS011;62678;52.130;5.584;2024-02-15T14:07:05;7.38;;;3.55;;
11962;SDS011;62678;52.130;5.584;2024-02-15T14:09:32;10.35;;;3.55;;
11962;SDS011;62678;52.130;5.584;2024-02-15T14:12:00;10.70;;;3.55;;
11962;SDS011;62678;52.130;5.584;2024-02-15T14:14:30;7.22;;;3.67;;
11962;SDS011;62678;52.130;5.584;2024-02-15T14:16:59;9.45;;;3.78;;
11962;SDS011;62678;52.130;5.584;2024-02-15T14:19:27;7.93;;;3.67;;
11962;SDS011;62678;52.130;5.584;2024-02-15T14:21:54;10.32;;;3.88;;
11962;SDS011;62678;52.130;5.584;2024-02-15T14:24:21;8.25;;;4.07;;
11962;SDS011;62678;52.130;5.584;2024-02-15T14:26:50;6.70;;;3.50;;
11962;SDS011;62678;52.130;5.584;2024-02-15T14:35:26;6.43;;;3.22;;
11962;SDS011;62678;52.130;5.584;2024-02-15T14:37:54;12.52;;;4.68;;
11962;SDS011;62678;52.130;5.584;2024-02-15T14:40:23;8.50;;;3.90;;
11962;SDS011;62678;52.130;5.584;2024-02-15T14:42:50;8.35;;;3.90;;
11962;SDS011;62678;52.130;5.584;2024-02-15T14:45:18;9.77;;;3.70;;
11962;SDS011;62678;52.130;5.584;2024-02-15T14:47:45;9.90;;;4.00;;
11962;SDS011;62678;52.130;5.584;2024-02-15T14:50:13;7.55;;;4.07;;
11962;SDS011;62678;52.130;5.584;2024-02-15T14:52:41;6.95;;;3.60;;
11962;SDS011;62678;52.130;5.584;2024-02-15T14:55:09;8.00;;;3.75;;